createdAt,value
2017-09-26T00:00:28.918Z,78.10
2017-09-26T00:02:57.562Z,78.00
2017-09-26T00:05:25.881Z,78.00
2017-09-26T00:07:53.411Z,78.00
2017-09-26T00:10:21.253Z,78.00
2017-09-26T00:12:48.789Z,77.90
2017-09-26T00:15:17.094Z,77.80
2017-09-26T00:17:44.959Z,77.80
2017-09-26T00:20:12.488Z,77.80
2017-09-26T00:22:40.786Z,77.80
2017-09-26T00:25:14.694Z,77.80
2017-09-26T00:27:42.224Z,77.70
2017-09-26T00:30:09.747Z,77.80
2017-09-26T00:32:37.633Z,78.60
2017-09-26T00:35:05.249Z,77.80
2017-09-26T00:37:32.780Z,77.80
2017-09-26T00:40:01.361Z,77.70
2017-09-26T00:42:29.667Z,77.70
2017-09-26T00:44:57.216Z,77.70
2017-09-26T00:47:25.144Z,77.80
2017-09-26T00:49:52.676Z,77.60
2017-09-26T00:52:20.199Z,77.70
2017-09-26T00:54:49.125Z,77.70
2017-09-26T00:57:16.706Z,77.70
2017-09-26T00:59:44.240Z,77.70
2017-09-26T01:02:12.113Z,77.70
2017-09-26T01:04:52.321Z,77.60
2017-09-26T01:07:36.942Z,77.70
2017-09-26T01:10:04.470Z,77.50
2017-09-26T01:12:32.008Z,77.50
2017-09-26T01:15:00.631Z,77.60
2017-09-26T01:17:28.144Z,77.60
2017-09-26T01:19:56.467Z,77.40
2017-09-26T01:22:24.296Z,77.30
2017-09-26T01:24:52.610Z,77.30
2017-09-26T01:27:20.139Z,77.30
2017-09-26T01:29:48.754Z,77.30
2017-09-26T01:32:16.272Z,77.30
2017-09-26T01:34:43.796Z,77.30
2017-09-26T01:37:11.636Z,77.20
2017-09-26T01:39:39.164Z,77.20
2017-09-26T01:42:06.715Z,77.10
2017-09-26T01:44:34.655Z,77.80
2017-09-26T01:47:02.192Z,77.10
2017-09-26T01:49:29.724Z,77.20
2017-09-26T01:51:58.376Z,77.00
2017-09-26T01:54:25.922Z,77.00
2017-09-26T01:57:00.479Z,77.10
2017-09-26T01:59:28.030Z,76.90
2017-09-26T02:01:55.582Z,77.50
2017-09-26T02:04:23.421Z,76.90
2017-09-26T02:06:50.943Z,76.90
2017-09-26T02:09:19.231Z,76.60
2017-09-26T02:11:47.871Z,76.60
2017-09-26T02:14:15.405Z,76.70
2017-09-26T02:16:43.514Z,76.80
2017-09-26T02:19:11.362Z,76.70
2017-09-26T02:21:38.875Z,76.70
2017-09-26T02:24:07.170Z,76.90
2017-09-26T02:26:34.997Z,76.70
2017-09-26T02:29:02.520Z,76.80
2017-09-26T02:31:30.047Z,76.80
2017-09-26T02:33:57.898Z,77.00
2017-09-26T02:36:26.194Z,77.10
2017-09-26T02:38:53.728Z,77.10
2017-09-26T02:41:22.344Z,77.70
2017-09-26T02:43:49.879Z,77.20
2017-09-26T02:46:18.170Z,77.20
2017-09-26T02:48:46.755Z,77.30
2017-09-26T02:51:15.035Z,77.20
2017-09-26T02:53:42.567Z,77.30
2017-09-26T02:56:10.371Z,77.30
2017-09-26T02:58:37.912Z,77.30
2017-09-26T03:01:06.211Z,77.40
2017-09-26T03:03:34.089Z,77.40
2017-09-26T03:06:01.625Z,77.40
2017-09-26T03:08:29.918Z,77.50
2017-09-26T03:10:57.754Z,77.50
2017-09-26T03:13:26.075Z,77.50
2017-09-26T03:15:53.620Z,77.50
2017-09-26T03:18:21.507Z,77.60
2017-09-26T03:20:49.044Z,77.60
2017-09-26T03:23:16.571Z,77.60
2017-09-26T03:25:45.212Z,77.60
2017-09-26T03:28:12.735Z,77.70
2017-09-26T03:30:40.264Z,77.60
2017-09-26T03:33:08.102Z,77.60
2017-09-26T03:35:36.615Z,77.50
2017-09-26T03:38:04.136Z,77.50
2017-09-26T03:40:32.005Z,77.60
2017-09-26T03:42:59.520Z,77.60
2017-09-26T03:45:27.835Z,77.50
2017-09-26T03:47:55.658Z,77.50
2017-09-26T03:50:23.192Z,77.50
2017-09-26T03:52:50.730Z,77.40
2017-09-26T03:55:18.703Z,77.40
2017-09-26T03:57:46.242Z,77.30
2017-09-26T04:00:13.764Z,77.40
2017-09-26T04:02:41.557Z,78.10
2017-09-26T04:05:09.888Z,77.40
2017-09-26T04:07:37.417Z,77.50
2017-09-26T04:10:05.244Z,77.60
2017-09-26T04:12:33.538Z,77.60
2017-09-26T04:15:01.839Z,77.60
2017-09-26T04:17:29.820Z,77.70
2017-09-26T04:19:57.344Z,77.70
2017-09-26T04:22:24.898Z,77.70
2017-09-26T04:24:53.495Z,77.80
2017-09-26T04:27:21.032Z,77.80
2017-09-26T04:29:48.554Z,77.80
2017-09-26T04:32:16.515Z,77.80
2017-09-26T04:34:44.039Z,77.80
2017-09-26T04:37:12.366Z,77.70
2017-09-26T04:39:40.180Z,77.80
2017-09-26T04:42:08.480Z,77.80
2017-09-26T04:44:36.011Z,77.80
2017-09-26T04:47:03.852Z,77.90
2017-09-26T04:49:31.377Z,77.90
2017-09-26T04:51:58.903Z,77.90
2017-09-26T04:54:26.750Z,77.90
2017-09-26T04:56:54.254Z,77.90
2017-09-26T04:59:21.784Z,78.00
2017-09-26T05:01:50.381Z,78.10
2017-09-26T05:04:18.668Z,78.20
2017-09-26T05:06:46.207Z,78.20
2017-09-26T05:09:14.827Z,78.20
2017-09-26T05:11:42.351Z,78.20
2017-09-26T05:14:10.642Z,78.20
2017-09-26T05:16:39.241Z,78.10
2017-09-26T05:19:06.765Z,78.20
2017-09-26T05:21:34.345Z,78.20
2017-09-26T05:24:02.941Z,78.20
2017-09-26T05:26:30.463Z,78.20
2017-09-26T05:28:58.001Z,78.20
2017-09-26T05:31:25.937Z,78.10
2017-09-26T05:33:53.529Z,78.20
2017-09-26T05:36:21.075Z,78.10
2017-09-26T05:38:48.944Z,78.70
2017-09-26T05:41:16.475Z,77.90
2017-09-26T05:43:44.037Z,77.80
2017-09-26T05:46:11.624Z,77.80
2017-09-26T05:48:39.189Z,77.70
2017-09-26T05:51:06.806Z,77.70
2017-09-26T05:53:34.368Z,77.70
2017-09-26T05:56:02.712Z,77.60
2017-09-26T05:58:30.243Z,77.60
2017-09-26T06:00:57.806Z,77.60
2017-09-26T06:03:25.335Z,77.50
2017-09-26T06:05:53.643Z,77.30
2017-09-26T06:08:21.169Z,77.10
2017-09-26T06:10:49.478Z,76.80
2017-09-26T06:13:17.019Z,76.80
2017-09-26T06:15:44.912Z,76.70
2017-09-26T06:18:12.455Z,76.60
2017-09-26T06:20:39.987Z,76.40
2017-09-26T06:23:08.291Z,76.10
2017-09-26T06:25:35.838Z,76.10
2017-09-26T06:28:03.401Z,75.90
2017-09-26T06:30:31.732Z,75.30
2017-09-26T06:32:59.275Z,75.30
2017-09-26T06:35:26.793Z,75.10
2017-09-26T06:37:55.134Z,74.50
2017-09-26T06:40:22.664Z,74.60
2017-09-26T06:42:50.325Z,74.10
2017-09-26T06:45:17.840Z,73.80
2017-09-26T06:47:45.388Z,73.80
2017-09-26T06:50:12.912Z,73.70
2017-09-26T06:52:40.483Z,73.70
2017-09-26T06:55:08.039Z,73.80
2017-09-26T06:57:35.572Z,73.80
2017-09-26T07:00:03.096Z,73.70
2017-09-26T07:02:30.669Z,73.80
2017-09-26T07:04:58.975Z,73.50
2017-09-26T07:07:26.520Z,73.50
2017-09-26T07:09:54.063Z,73.50
2017-09-26T07:12:22.385Z,73.40
2017-09-26T07:14:49.919Z,73.40
2017-09-26T07:17:17.475Z,73.50
2017-09-26T07:19:45.749Z,73.30
2017-09-26T07:22:14.080Z,73.20
2017-09-26T07:24:41.604Z,73.30
2017-09-26T07:27:09.863Z,73.20
2017-09-26T07:29:38.174Z,73.30
2017-09-26T07:32:05.723Z,73.30
2017-09-26T07:34:33.244Z,73.10
2017-09-26T07:37:00.788Z,72.90
2017-09-26T07:39:28.346Z,72.60
2017-09-26T07:41:55.879Z,72.50
2017-09-26T07:44:23.425Z,72.30
2017-09-26T07:46:50.958Z,72.00
2017-09-26T07:49:19.283Z,71.60
2017-09-26T07:51:46.800Z,71.40
2017-09-26T07:54:14.368Z,71.30
2017-09-26T07:56:41.918Z,71.30
2017-09-26T07:59:10.235Z,70.90
2017-09-26T08:01:37.757Z,70.90
2017-09-26T08:04:06.308Z,70.40
2017-09-26T08:06:33.961Z,70.30
2017-09-26T08:09:01.699Z,70.10
2017-09-26T08:11:29.217Z,70.10
2017-09-26T08:13:56.766Z,69.90
2017-09-26T08:16:24.294Z,69.80
2017-09-26T08:18:51.858Z,69.60
2017-09-26T08:21:19.371Z,69.60
2017-09-26T08:23:46.928Z,69.20
2017-09-26T08:26:15.219Z,68.70
2017-09-26T08:28:43.622Z,68.70
2017-09-26T08:31:11.164Z,68.70
2017-09-26T08:33:38.742Z,68.50
2017-09-26T08:36:06.263Z,68.30
2017-09-26T08:38:34.577Z,68.00
2017-09-26T08:41:02.105Z,68.00
2017-09-26T08:43:30.425Z,67.60
2017-09-26T08:45:57.953Z,67.60
2017-09-26T08:48:26.270Z,66.80
2017-09-26T08:50:53.798Z,66.80
2017-09-26T08:53:21.316Z,66.20
2017-09-26T08:55:48.872Z,66.30
2017-09-26T08:58:16.406Z,66.20
2017-09-26T09:00:43.947Z,66.10
2017-09-26T09:03:11.469Z,66.10
2017-09-26T09:05:39.019Z,65.80
2017-09-26T09:08:07.340Z,65.40
2017-09-26T09:10:34.895Z,65.40
2017-09-26T09:13:02.414Z,65.20
2017-09-26T09:15:29.956Z,64.80
2017-09-26T09:17:57.483Z,64.50
2017-09-26T09:20:25.058Z,64.20
2017-09-26T09:22:52.580Z,64.00
2017-09-26T09:25:20.903Z,63.20
2017-09-26T09:27:48.450Z,63.20
2017-09-26T09:30:15.998Z,63.40
2017-09-26T09:32:43.593Z,63.10
2017-09-26T09:35:11.151Z,63.30
2017-09-26T09:37:38.675Z,63.20
2017-09-26T09:40:06.984Z,62.90
2017-09-26T09:42:34.506Z,62.90
2017-09-26T09:45:02.813Z,62.40
2017-09-26T09:47:30.355Z,62.40
2017-09-26T09:49:57.955Z,62.20
2017-09-26T09:52:25.464Z,62.20
2017-09-26T09:54:53.781Z,62.20
2017-09-26T09:57:21.300Z,62.30
2017-09-26T09:59:49.631Z,61.80
2017-09-26T10:02:17.145Z,61.70
2017-09-26T10:04:44.695Z,61.40
2017-09-26T10:07:12.991Z,61.20
2017-09-26T10:09:40.531Z,61.20
2017-09-26T10:12:08.866Z,60.70
2017-09-26T10:14:36.395Z,60.70
2017-09-26T10:17:03.945Z,60.20
2017-09-26T10:19:31.472Z,60.40
2017-09-26T10:21:59.026Z,60.20
2017-09-26T10:24:26.572Z,60.20
2017-09-26T10:26:54.134Z,59.70
2017-09-26T10:29:21.665Z,59.70
2017-09-26T10:31:49.215Z,59.70
2017-09-26T10:34:16.744Z,59.40
2017-09-26T10:36:45.052Z,59.10
2017-09-26T10:39:12.695Z,59.10
2017-09-26T10:41:41.022Z,58.80
2017-09-26T10:44:08.553Z,58.80
2017-09-26T10:46:36.100Z,58.70
2017-09-26T10:49:03.639Z,58.60
2017-09-26T10:51:31.215Z,58.50
2017-09-26T10:53:59.495Z,58.60
2017-09-26T10:56:27.811Z,58.60
2017-09-26T10:58:55.330Z,58.60
2017-09-26T11:01:23.688Z,58.00
2017-09-26T11:03:51.229Z,58.00
2017-09-26T11:06:18.797Z,58.00
2017-09-26T11:08:46.334Z,57.90
2017-09-26T11:11:13.992Z,57.80
2017-09-26T11:13:41.532Z,57.40
2017-09-26T11:16:09.085Z,57.00
2017-09-26T11:18:36.607Z,56.80
2017-09-26T11:21:04.181Z,56.80
2017-09-26T11:23:32.470Z,57.10
2017-09-26T11:26:01.088Z,57.00
2017-09-26T11:28:28.608Z,57.00
2017-09-26T11:30:56.894Z,55.00
2017-09-26T11:33:25.431Z,53.50
2017-09-26T11:35:52.935Z,53.40
2017-09-26T11:38:21.260Z,51.30
2017-09-26T11:40:48.780Z,51.30
2017-09-26T11:43:17.116Z,50.10
2017-09-26T11:45:44.666Z,50.10
2017-09-26T11:48:12.220Z,49.80
2017-09-26T11:50:39.735Z,50.00
2017-09-26T11:53:08.048Z,50.20
2017-09-26T11:55:35.589Z,50.20
2017-09-26T11:58:03.132Z,50.20
2017-09-26T12:00:31.440Z,50.60
2017-09-26T12:02:58.997Z,50.60
2017-09-26T12:05:26.523Z,50.70
2017-09-26T12:07:54.835Z,50.20
2017-09-26T12:10:22.778Z,50.10
2017-09-26T12:12:58.366Z,50.80
2017-09-26T12:15:25.901Z,50.80
2017-09-26T12:17:53.479Z,50.70
2017-09-26T12:20:20.999Z,50.80
2017-09-26T12:22:48.682Z,50.80
2017-09-26T12:25:17.358Z,51.40
2017-09-26T12:27:45.683Z,51.80
2017-09-26T12:30:13.244Z,51.70
2017-09-26T12:32:40.814Z,52.10
2017-09-26T12:35:08.381Z,52.40
2017-09-26T12:37:35.966Z,53.00
2017-09-26T12:40:03.529Z,53.20
2017-09-26T12:42:32.973Z,54.20
2017-09-26T12:45:00.575Z,54.20
2017-09-26T12:47:28.117Z,54.30
2017-09-26T12:49:57.009Z,54.40
2017-09-26T12:52:25.608Z,54.70
2017-09-26T12:54:54.079Z,55.70
2017-09-26T12:57:21.629Z,55.30
2017-09-26T12:59:49.233Z,55.50
2017-09-26T13:02:17.533Z,55.90
2017-09-26T13:04:45.919Z,56.10
2017-09-26T13:07:13.528Z,56.10
2017-09-26T13:09:41.215Z,56.40
2017-09-26T13:12:08.761Z,56.40
2017-09-26T13:14:36.341Z,57.20
2017-09-26T13:17:06.394Z,56.70
2017-09-26T13:19:34.033Z,56.70
2017-09-26T13:22:01.826Z,56.80
2017-09-26T13:24:29.506Z,56.90
2017-09-26T13:26:57.888Z,57.00
2017-09-26T13:29:25.548Z,57.00
2017-09-26T13:31:53.356Z,56.90
2017-09-26T13:34:21.084Z,57.00
2017-09-26T13:36:48.672Z,57.10
2017-09-26T13:39:16.315Z,57.10
2017-09-26T13:41:43.935Z,57.20
2017-09-26T13:44:11.619Z,57.20
2017-09-26T13:46:39.204Z,57.00
2017-09-26T13:49:06.830Z,57.20
2017-09-26T13:51:34.354Z,57.10
2017-09-26T13:54:03.406Z,56.80
2017-09-26T13:56:31.817Z,56.80
2017-09-26T13:58:59.369Z,56.60
2017-09-26T14:01:28.843Z,56.60
2017-09-26T14:03:56.523Z,56.40
2017-09-26T14:06:24.157Z,56.50
2017-09-26T14:08:51.750Z,56.60
2017-09-26T14:11:19.265Z,56.80
2017-09-26T14:13:47.668Z,57.20
2017-09-26T14:16:16.775Z,56.30
2017-09-26T14:18:44.396Z,56.10
2017-09-26T14:21:13.542Z,55.80
2017-09-26T14:23:54.610Z,55.70
2017-09-26T14:26:22.358Z,55.70
2017-09-26T14:28:50.697Z,55.90
2017-09-26T14:31:34.681Z,55.70
2017-09-26T14:34:46.498Z,56.60
2017-09-26T14:37:38.530Z,56.00
2017-09-26T14:40:06.339Z,56.10
2017-09-26T15:02:40.034Z,56.70
2017-09-26T15:05:07.858Z,56.30
2017-09-26T15:08:20.655Z,56.50
2017-09-26T15:10:48.484Z,57.90
2017-09-26T15:13:16.170Z,56.50
2017-09-26T15:15:43.802Z,56.40
2017-09-26T15:18:11.368Z,56.20
2017-09-26T15:20:39.257Z,56.40
2017-09-26T15:23:09.672Z,56.40
2017-09-26T15:25:37.447Z,56.70
2017-09-26T15:28:05.158Z,56.80
2017-09-26T15:30:32.903Z,56.80
2017-09-26T15:33:00.544Z,56.80
2017-09-26T15:35:28.856Z,57.10
2017-09-26T15:37:56.381Z,57.20
2017-09-26T15:40:24.005Z,57.30
2017-09-26T15:42:52.292Z,57.60
2017-09-26T15:45:19.800Z,57.60
2017-09-26T15:47:47.349Z,57.70
2017-09-26T15:50:15.920Z,57.70
2017-09-26T15:52:43.685Z,57.90
2017-09-26T15:55:11.210Z,58.00
2017-09-26T15:57:39.536Z,58.20
2017-09-26T16:00:07.836Z,58.20
2017-09-26T16:02:35.389Z,58.20
2017-09-26T16:05:02.916Z,58.40
2017-09-26T16:07:30.507Z,58.60
2017-09-26T16:09:58.032Z,59.20
2017-09-26T16:12:25.618Z,58.80
2017-09-26T16:14:53.200Z,58.90
2017-09-26T16:17:20.761Z,59.00
2017-09-26T16:19:48.270Z,59.10
2017-09-26T16:22:15.827Z,59.20
2017-09-26T16:24:43.852Z,59.30
2017-09-26T16:27:11.425Z,59.30
2017-09-26T16:29:38.976Z,59.30
2017-09-26T16:32:06.572Z,59.40
2017-09-26T16:34:34.875Z,59.70
2017-09-26T16:37:02.541Z,59.70
2017-09-26T16:39:30.072Z,59.80
2017-09-26T16:41:58.424Z,59.80
2017-09-26T16:44:27.413Z,59.90
2017-09-26T16:46:55.004Z,60.10
2017-09-26T16:49:24.177Z,60.00
2017-09-26T16:51:52.624Z,60.10
2017-09-26T16:54:20.204Z,60.10
2017-09-26T16:56:47.868Z,60.30
2017-09-26T16:59:15.462Z,60.30
2017-09-26T17:01:43.997Z,60.50
2017-09-26T17:04:11.546Z,60.80
2017-09-26T17:06:39.106Z,60.70
2017-09-26T17:09:06.935Z,60.90
2017-09-26T17:11:34.637Z,61.10
2017-09-26T17:14:02.990Z,61.30
2017-09-26T17:16:30.713Z,61.30
2017-09-26T17:18:58.372Z,61.40
2017-09-26T17:21:26.791Z,61.80
2017-09-26T17:23:54.427Z,61.80
2017-09-26T17:26:22.025Z,62.00
2017-09-26T17:28:49.837Z,62.00
2017-09-26T17:31:17.492Z,62.20
2017-09-26T17:33:45.126Z,62.50
2017-09-26T17:36:12.880Z,62.50
2017-09-26T17:38:41.331Z,62.80
2017-09-26T17:41:08.931Z,62.80
2017-09-26T17:43:38.118Z,63.20
2017-09-26T17:46:06.284Z,63.10
2017-09-26T17:48:34.716Z,63.50
2017-09-26T17:51:02.433Z,63.50
2017-09-26T17:53:30.161Z,63.70
2017-09-26T17:55:57.739Z,64.00
2017-09-26T17:58:25.401Z,64.10
2017-09-26T18:00:52.928Z,64.30
2017-09-26T18:03:21.000Z,64.50
2017-09-26T18:05:48.623Z,64.80
2017-09-26T18:08:16.283Z,65.00
2017-09-26T18:10:44.670Z,65.40
2017-09-26T18:13:12.308Z,65.40
2017-09-26T18:15:41.842Z,65.70
2017-09-26T18:18:10.791Z,65.90
2017-09-26T18:20:39.104Z,66.20
2017-09-26T18:23:08.051Z,66.30
2017-09-26T18:25:35.749Z,66.30
2017-09-26T18:28:03.867Z,66.50
2017-09-26T18:33:59.860Z,66.80
2017-09-26T18:39:13.619Z,66.90
2017-09-26T18:41:43.902Z,67.30
2017-09-26T18:44:12.276Z,67.80
2017-09-26T18:46:39.929Z,67.90
2017-09-26T18:49:07.514Z,68.00
2017-09-26T18:51:35.292Z,68.10
2017-09-26T18:54:02.859Z,68.30
2017-09-26T18:56:30.448Z,68.40
2017-09-26T18:58:58.810Z,68.70
2017-09-26T19:01:27.164Z,68.90
2017-09-26T19:03:54.724Z,69.00
2017-09-26T19:06:22.467Z,69.20
2017-09-26T19:08:50.027Z,69.20
2017-09-26T19:11:17.601Z,69.50
2017-09-26T19:13:45.169Z,69.70
2017-09-26T19:16:12.771Z,69.90
2017-09-26T19:18:41.073Z,70.20
2017-09-26T19:21:08.628Z,70.30
2017-09-26T19:23:36.241Z,70.50
2017-09-26T19:26:03.802Z,70.60
2017-09-26T19:28:31.446Z,70.90
2017-09-26T19:30:59.022Z,71.10
2017-09-26T19:33:26.646Z,71.30
2017-09-26T19:35:54.384Z,71.50
2017-09-26T19:38:22.707Z,71.90
2017-09-26T19:40:50.343Z,71.80
2017-09-26T19:43:17.978Z,72.00
2017-09-26T19:45:45.529Z,72.10
2017-09-26T19:48:13.892Z,72.30
2017-09-26T19:50:41.447Z,72.50
2017-09-26T19:53:09.036Z,72.50
2017-09-26T19:55:37.360Z,72.90
2017-09-26T19:58:04.926Z,72.80
2017-09-26T20:00:32.448Z,73.00
2017-09-26T20:03:00.791Z,73.30
2017-09-26T20:05:28.354Z,73.30
2017-09-26T20:07:55.941Z,73.40
2017-09-26T20:10:23.480Z,73.40
2017-09-26T20:12:51.044Z,73.40
2017-09-26T20:15:18.597Z,73.50
2017-09-26T20:17:46.183Z,73.70
2017-09-26T20:20:13.714Z,73.50
2017-09-26T20:22:41.334Z,73.50
2017-09-26T20:25:09.649Z,73.60
2017-09-26T20:27:37.290Z,73.60
2017-09-26T20:30:04.835Z,73.60
2017-09-26T20:32:32.432Z,73.60
2017-09-26T20:34:59.969Z,73.60
2017-09-26T20:37:27.851Z,73.60
2017-09-26T20:39:55.381Z,73.70
2017-09-26T20:42:22.922Z,73.70
2017-09-26T20:44:51.249Z,73.90
2017-09-26T20:47:18.795Z,73.90
2017-09-26T20:49:46.408Z,74.00
2017-09-26T20:52:13.933Z,74.00
2017-09-26T20:54:41.539Z,74.10
2017-09-26T20:57:09.930Z,74.40
2017-09-26T20:59:38.262Z,74.50
2017-09-26T21:02:05.815Z,74.50
2017-09-26T21:04:33.381Z,74.60
2017-09-26T21:07:00.947Z,74.70
2017-09-26T21:09:28.547Z,74.60
2017-09-26T21:11:56.891Z,74.80
2017-09-26T21:14:24.519Z,74.90
2017-09-26T21:16:52.041Z,75.00
2017-09-26T21:19:20.439Z,75.00
2017-09-26T21:21:47.980Z,75.00
2017-09-26T21:24:15.541Z,75.10
2017-09-26T21:26:43.077Z,75.10
2017-09-26T21:29:10.659Z,74.60
2017-09-26T21:31:38.191Z,75.00
2017-09-26T21:34:05.759Z,75.20
2017-09-26T21:36:33.322Z,75.10
2017-09-26T21:39:01.563Z,75.10
2017-09-26T21:41:29.097Z,75.10
2017-09-26T21:43:56.683Z,75.10
2017-09-26T21:46:25.002Z,75.20
2017-09-26T21:48:52.549Z,75.30
2017-09-26T21:51:20.144Z,75.40
2017-09-26T21:53:48.815Z,75.60
2017-09-26T21:56:17.133Z,75.60
2017-09-26T21:58:44.669Z,75.50
2017-09-26T22:01:13.035Z,75.70
2017-09-26T22:03:40.566Z,75.70
2017-09-26T22:06:08.125Z,75.80
2017-09-26T22:08:35.683Z,75.90
2017-09-26T22:11:03.242Z,76.10
2017-09-26T22:13:30.772Z,76.30
2017-09-26T22:15:58.326Z,76.40
2017-09-26T22:18:25.852Z,76.50
2017-09-26T22:20:53.421Z,76.70
2017-09-26T22:23:20.950Z,76.90
2017-09-26T22:25:48.497Z,76.90
2017-09-26T22:28:16.049Z,77.10
2017-09-26T22:30:43.611Z,77.20
2017-09-26T22:33:11.158Z,77.40
2017-09-26T22:35:38.724Z,77.50
2017-09-26T22:38:06.256Z,77.60
2017-09-26T22:40:34.592Z,77.70
2017-09-26T22:43:02.116Z,77.70
2017-09-26T22:45:30.058Z,77.60
2017-09-26T22:47:57.617Z,77.70
2017-09-26T22:50:25.124Z,77.60
2017-09-26T22:52:52.940Z,77.70
2017-09-26T22:55:20.455Z,77.70
2017-09-26T22:57:47.987Z,77.80
2017-09-26T23:00:15.825Z,77.70
2017-09-26T23:02:43.344Z,77.90
2017-09-26T23:05:10.871Z,77.80
2017-09-26T23:07:39.491Z,77.90
2017-09-26T23:10:07.021Z,77.80
2017-09-26T23:12:34.540Z,77.80
2017-09-26T23:15:02.372Z,77.80
2017-09-26T23:17:29.903Z,77.80
2017-09-26T23:19:57.431Z,77.80
2017-09-26T23:22:25.459Z,77.90
2017-09-26T23:24:52.983Z,78.00
2017-09-26T23:27:21.295Z,77.80
2017-09-26T23:29:49.114Z,77.80
2017-09-26T23:32:16.656Z,77.70
2017-09-26T23:34:44.208Z,77.80
2017-09-26T23:37:12.056Z,77.80
2017-09-26T23:39:39.580Z,77.70
2017-09-26T23:42:07.879Z,77.60
2017-09-26T23:44:35.730Z,77.50
2017-09-26T23:47:04.018Z,77.60
2017-09-26T23:49:31.568Z,77.50
2017-09-26T23:51:59.488Z,77.50
2017-09-26T23:54:27.024Z,77.50
2017-09-26T23:56:54.559Z,77.50
2017-09-26T23:59:22.646Z,77.60
